Terminal Aerodrome Forecast
Issued by NWS Albany, NY

Home | Current Version | Previous Version | Text Only | Print | Product List | Glossary On
Versions: 1 2 3 4 5 6 7 8 9 10 11 12 13 14 15 16 17 18 19
151
FTUS41 KALY 170538
TAFGFL
TAF
KGFL 170538Z 1706/1806 00000KT P6SM FEW200
      TEMPO 1708/1712 3SM BR
     FM171200 VRB06KT P6SM SKC
     FM180000 00000KT P6SM SCT050=

USA.gov is the U.S. government's official web portal to all federal, state and local government web resources and services.